Time;durP1;ratioP1;P1;durP2;ratioP2;P2;SDS_P1;SDS_P2;PMS_P1;PMS_P2;Temp;Humidity;BMP_temperature;BMP_pressure;BME280_temperature;BME280_humidity;BME280_pressure;Samples;Min_cycle;Max_cycle;Signal;HPM_P1;HPM_P2
2024/01/02 00:01:56;;;;;;;5.83;1.40;;;;;;;5.41;100.00;100287.63;4978378;28;20230;-73
2024/01/02 00:04:24;;;;;;;4.30;1.20;;;;;;;5.40;100.00;100283.47;4976868;28;20217;-72
2024/01/02 00:06:50;;;;;;;7.77;1.60;;;;;;;5.40;100.00;100285.31;4979434;28;20284;-72
2024/01/02 00:09:16;;;;;;;4.33;1.37;;;;;;;5.38;100.00;100284.84;4978243;28;20205;-72
2024/01/02 00:11:43;;;;;;;6.57;1.63;;;;;;;5.36;100.00;100287.75;4976730;28;20225;-72
2024/01/02 00:14:09;;;;;;;7.33;1.40;;;;;;;5.34;100.00;100283.88;4978894;28;20215;-72
2024/01/02 00:16:37;;;;;;;5.73;1.47;;;;;;;5.34;100.00;100281.28;4979394;28;20660;-71
2024/01/02 00:19:03;;;;;;;3.00;1.37;;;;;;;5.32;100.00;100270.31;4978244;28;20204;-71
2024/01/02 00:21:30;;;;;;;7.23;1.50;;;;;;;5.30;100.00;100275.06;4977283;28;20237;-72
2024/01/02 00:23:57;;;;;;;4.03;1.30;;;;;;;5.29;100.00;100265.69;4973559;28;20208;-71
2024/01/02 00:26:23;;;;;;;4.63;1.67;;;;;;;5.28;100.00;100272.00;4972261;28;20206;-72
2024/01/02 00:28:50;;;;;;;4.30;1.90;;;;;;;5.27;100.00;100273.81;4973322;28;20212;-72
2024/01/02 00:31:16;;;;;;;5.30;1.40;;;;;;;5.26;100.00;100266.25;4972198;28;20887;-72
2024/01/02 00:33:44;;;;;;;9.23;1.60;;;;;;;5.23;100.00;100265.00;4972387;28;20225;-72
2024/01/02 00:36:10;;;;;;;9.13;1.07;;;;;;;5.21;100.00;100256.69;4971994;28;20217;-74
2024/01/02 00:38:38;;;;;;;4.63;1.30;;;;;;;5.20;100.00;100262.22;4971415;28;20205;-71
2024/01/02 00:41:04;;;;;;;4.63;1.50;;;;;;;5.17;100.00;100281.13;4971018;28;20228;-72
2024/01/02 00:43:31;;;;;;;7.33;1.50;;;;;;;5.13;100.00;100270.47;4975770;28;20220;-72
2024/01/02 00:45:59;;;;;;;9.37;1.60;;;;;;;5.14;100.00;100273.88;4970479;28;20888;-72
2024/01/02 00:48:26;;;;;;;7.37;1.80;;;;;;;5.14;100.00;100276.50;4970239;28;20719;-71
2024/01/02 00:50:54;;;;;;;6.60;1.73;;;;;;;5.13;100.00;100274.97;4973081;28;20229;-71
2024/01/02 00:53:20;;;;;;;5.90;1.40;;;;;;;5.11;100.00;100269.22;4973552;28;20552;-71
2024/01/02 00:55:47;;;;;;;4.70;1.27;;;;;;;5.11;100.00;100266.63;4971811;28;20235;-72
2024/01/02 00:58:13;;;;;;;7.10;1.80;;;;;;;5.10;100.00;100265.06;4971103;28;20219;-71
2024/01/02 01:00:39;;;;;;;6.63;1.70;;;;;;;5.10;100.00;100258.00;4973448;28;20236;-71
2024/01/02 01:03:06;;;;;;;4.87;1.37;;;;;;;5.09;100.00;100264.31;4971574;28;20201;-71
2024/01/02 01:05:32;;;;;;;5.83;1.50;;;;;;;5.08;100.00;100262.75;4972486;28;20276;-71
2024/01/02 01:08:00;;;;;;;4.83;1.27;;;;;;;5.07;100.00;100261.19;4979261;28;20213;-71
2024/01/02 01:10:26;;;;;;;6.30;1.67;;;;;;;5.07;100.00;100263.06;4971859;28;20235;-72
2024/01/02 01:12:53;;;;;;;4.43;2.37;;;;;;;5.05;100.00;100255.50;4970300;28;20216;-72
2024/01/02 01:15:20;;;;;;;7.10;2.33;;;;;;;5.05;100.00;100262.56;4972149;28;20221;-72
2024/01/02 01:17:46;;;;;;;6.03;1.30;;;;;;;5.03;100.00;100249.03;4971903;28;21146;-72
2024/01/02 01:20:12;;;;;;;9.40;1.83;;;;;;;5.02;100.00;100257.94;4972515;28;20229;-71
2024/01/02 01:22:39;;;;;;;4.80;1.50;;;;;;;4.99;100.00;100248.06;4971261;28;20205;-72
2024/01/02 01:25:08;;;;;;;6.17;1.40;;;;;;;4.98;100.00;100249.13;4971737;28;20230;-72
2024/01/02 01:27:35;;;;;;;6.53;1.73;;;;;;;4.92;100.00;100248.47;4972607;28;20826;-72
2024/01/02 01:30:01;;;;;;;7.77;1.70;;;;;;;4.89;100.00;100256.13;4975524;28;20353;-71
2024/01/02 01:32:28;;;;;;;8.87;1.43;;;;;;;4.83;100.00;100244.22;4973880;28;20577;-71
2024/01/02 01:34:55;;;;;;;6.13;1.50;;;;;;;4.77;100.00;100253.25;4970791;28;20705;-72
2024/01/02 01:37:22;;;;;;;3.03;1.90;;;;;;;4.72;100.00;100253.38;4972185;28;20212;-72
2024/01/02 01:39:49;;;;;;;8.03;1.60;;;;;;;4.67;100.00;100251.63;4970599;28;20243;-72
2024/01/02 01:42:16;;;;;;;7.93;1.50;;;;;;;4.62;100.00;100253.59;4991895;28;20221;-71
2024/01/02 01:44:43;;;;;;;5.20;1.63;;;;;;;4.59;100.00;100246.31;4975166;28;20338;-71
2024/01/02 01:47:11;;;;;;;6.23;1.10;;;;;;;4.56;100.00;100249.53;4983123;28;20205;-71
2024/01/02 01:49:37;;;;;;;5.33;1.70;;;;;;;4.53;100.00;100243.06;4975030;28;20701;-72
2024/01/02 01:52:04;;;;;;;5.57;1.40;;;;;;;4.51;100.00;100241.78;4975449;28;20608;-72
2024/01/02 01:54:30;;;;;;;4.20;1.43;;;;;;;4.44;100.00;100247.41;4976018;28;20243;-71
2024/01/02 01:56:57;;;;;;;7.70;1.43;;;;;;;4.39;100.00;100247.50;4975970;28;20209;-72
2024/01/02 01:59:25;;;;;;;5.67;1.47;;;;;;;4.33;100.00;100240.06;4977323;28;20206;-72
2024/01/02 02:01:53;;;;;;;5.93;1.30;;;;;;;4.29;100.00;100246.94;4974305;28;20228;-71
2024/01/02 02:04:22;;;;;;;7.83;2.30;;;;;;;4.22;100.00;100242.13;4984575;28;20701;-72
2024/01/02 02:06:48;;;;;;;6.53;1.73;;;;;;;4.16;100.00;100245.09;4976100;28;20211;-71
2024/01/02 02:09:14;;;;;;;5.63;1.93;;;;;;;4.08;100.00;100240.53;4978711;28;20193;-72
2024/01/02 02:11:41;;;;;;;8.33;1.67;;;;;;;4.02;100.00;100245.09;4978082;28;20229;-72
2024/01/02 02:14:09;;;;;;;2.63;1.47;;;;;;;3.97;100.00;100233.97;4979251;28;20249;-71
2024/01/02 02:16:41;;;;;;;11.47;1.87;;;;;;;3.88;100.00;100246.19;4996402;28;20217;-71
2024/01/02 02:19:07;;;;;;;3.97;1.30;;;;;;;3.80;100.00;100244.22;4985023;28;20576;-71
2024/01/02 02:21:35;;;;;;;5.03;1.70;;;;;;;3.70;100.00;100234.75;4980038;28;20236;-71
2024/01/02 02:24:04;;;;;;;11.97;1.60;;;;;;;3.62;100.00;100242.44;4980704;28;20347;-72
2024/01/02 02:26:30;;;;;;;7.50;1.77;;;;;;;3.52;100.00;100240.78;4979280;28;20204;-71
2024/01/02 02:28:57;;;;;;;7.23;1.40;;;;;;;3.45;100.00;100240.38;4998409;28;20220;-71
2024/01/02 02:31:23;;;;;;;5.97;1.70;;;;;;;3.34;100.00;100233.00;4980126;28;20229;-71
2024/01/02 02:33:49;;;;;;;4.40;1.53;;;;;;;3.26;100.00;100233.66;4998481;28;20220;-71
2024/01/02 02:36:16;;;;;;;7.73;1.40;;;;;;;3.18;100.00;100232.47;4986626;28;20221;-72
2024/01/02 02:38:42;;;;;;;9.33;1.73;;;;;;;3.11;100.00;100224.22;4988079;28;20201;-71
2024/01/02 02:41:10;;;;;;;10.77;1.63;;;;;;;3.03;100.00;100227.50;4987282;28;20232;-71
2024/01/02 02:43:37;;;;;;;4.90;1.27;;;;;;;2.96;100.00;100227.06;4989155;28;20224;-72
2024/01/02 02:46:03;;;;;;;3.10;1.60;;;;;;;2.90;100.00;100211.78;4989536;28;21152;-71
2024/01/02 02:48:30;;;;;;;9.33;1.47;;;;;;;2.84;100.00;100215.50;4988325;28;20216;-71
2024/01/02 02:50:56;;;;;;;9.97;1.53;;;;;;;2.79;100.00;100215.56;4988297;28;20233;-72
2024/01/02 02:53:22;;;;;;;2.77;1.43;;;;;;;2.72;100.00;100205.53;4993330;28;20212;-72
2024/01/02 02:55:49;;;;;;;6.47;2.13;;;;;;;2.67;100.00;100203.00;4986664;28;21124;-72
2024/01/02 02:58:16;;;;;;;8.10;2.37;;;;;;;2.62;100.00;100199.66;5003454;28;20204;-72
2024/01/02 03:00:43;;;;;;;5.07;1.53;;;;;;;2.56;100.00;100201.59;4987390;28;20235;-71
2024/01/02 03:03:09;;;;;;;6.90;1.73;;;;;;;2.51;100.00;100199.06;4987700;28;20214;-71
2024/01/02 03:05:35;;;;;;;5.63;2.00;;;;;;;2.47;100.00;100200.66;4989422;28;20204;-72
2024/01/02 03:08:02;;;;;;;8.33;1.80;;;;;;;2.41;100.00;100193.97;4990611;28;20205;-71
2024/01/02 03:10:28;;;;;;;5.00;1.70;;;;;;;2.38;100.00;100202.34;4990140;28;20229;-72
2024/01/02 03:12:55;;;;;;;7.33;1.73;;;;;;;2.35;100.00;100189.09;4983494;28;20569;-72
2024/01/02 03:15:22;;;;;;;7.93;1.80;;;;;;;2.30;100.00;100182.13;4984266;28;20220;-72
2024/01/02 03:17:49;;;;;;;10.00;2.00;;;;;;;2.26;100.00;100183.75;4985333;28;20236;-72
2024/01/02 03:20:15;;;;;;;7.87;2.10;;;;;;;2.23;100.00;100173.13;4986538;28;20636;-72
2024/01/02 03:22:41;;;;;;;9.07;2.00;;;;;;;2.19;100.00;100164.31;4984873;28;20212;-73
2024/01/02 03:25:09;;;;;;;7.60;1.97;;;;;;;2.17;100.00;100166.41;4987168;28;21393;-72
2024/01/02 03:27:35;;;;;;;6.77;2.00;;;;;;;2.14;100.00;100162.53;4986785;28;20209;-72
2024/01/02 03:30:01;;;;;;;8.93;1.90;;;;;;;2.10;100.00;100153.75;4984399;28;20202;-72
2024/01/02 03:32:31;;;;;;;9.83;1.83;;;;;;;2.06;100.00;100147.53;4985394;28;20204;-72
2024/01/02 03:34:57;;;;;;;11.40;3.37;;;;;;;2.04;100.00;100154.84;4987042;28;20227;-72
2024/01/02 03:37:24;;;;;;;8.93;2.00;;;;;;;2.01;100.00;100150.19;4986301;28;21896;-72
2024/01/02 03:39:50;;;;;;;7.00;2.40;;;;;;;2.00;100.00;100153.06;4987978;28;20248;-72
2024/01/02 03:42:16;;;;;;;5.10;2.00;;;;;;;1.96;100.00;100149.47;4987547;28;20610;-73
2024/01/02 03:44:42;;;;;;;10.17;2.23;;;;;;;1.92;100.00;100136.25;4984581;28;20205;-73
2024/01/02 03:47:09;;;;;;;9.03;2.43;;;;;;;1.89;100.00;100136.81;4986889;28;20209;-72
2024/01/02 03:49:36;;;;;;;10.57;2.27;;;;;;;1.86;100.00;100139.97;4985814;28;20200;-72
2024/01/02 03:52:03;;;;;;;8.03;1.93;;;;;;;1.84;100.00;100129.06;4986808;28;20913;-72
2024/01/02 03:54:29;;;;;;;8.70;2.33;;;;;;;1.81;100.00;100118.41;4984186;28;20249;-72
2024/01/02 03:56:56;;;;;;;10.80;3.03;;;;;;;1.79;100.00;100123.13;4985478;28;20209;-72
2024/01/02 03:59:22;;;;;;;6.87;1.77;;;;;;;1.77;100.00;100118.19;4985774;28;20675;-72
2024/01/02 04:01:48;;;;;;;9.80;1.83;;;;;;;1.74;100.00;100110.97;4986041;28;20213;-73
2024/01/02 04:04:15;;;;;;;6.57;1.80;;;;;;;1.75;100.00;100109.91;4985409;28;20200;-72
2024/01/02 04:06:42;;;;;;;6.10;1.90;;;;;;;1.75;100.00;100101.31;4984662;28;20204;-71
2024/01/02 04:09:10;;;;;;;10.60;2.47;;;;;;;1.76;100.00;100098.44;4987152;28;20197;-73
2024/01/02 04:11:36;;;;;;;6.93;2.83;;;;;;;1.78;100.00;100090.34;4985376;28;20221;-72
2024/01/02 04:14:02;;;;;;;7.93;2.50;;;;;;;1.79;100.00;100089.28;4985811;28;20927;-73
2024/01/02 04:16:29;;;;;;;8.90;2.00;;;;;;;1.82;100.00;100088.75;4984453;28;20217;-73
2024/01/02 04:18:55;;;;;;;6.83;2.23;;;;;;;1.84;100.00;100073.63;4985648;28;20239;-73
2024/01/02 04:21:21;;;;;;;7.17;2.10;;;;;;;1.87;100.00;100070.47;4984410;28;20229;-72
2024/01/02 04:23:49;;;;;;;8.20;2.30;;;;;;;1.88;100.00;100066.81;4982097;28;20217;-72
2024/01/02 04:26:15;;;;;;;6.80;2.00;;;;;;;1.90;100.00;100069.88;4982762;28;20204;-72
2024/01/02 04:28:42;;;;;;;10.27;2.33;;;;;;;1.92;100.00;100060.75;4981670;28;20219;-73
2024/01/02 04:31:08;;;;;;;11.07;1.97;;;;;;;1.93;100.00;100058.94;4983155;28;20677;-72
2024/01/02 04:33:35;;;;;;;6.37;2.17;;;;;;;1.94;100.00;100052.66;4983105;28;20236;-72
2024/01/02 04:36:01;;;;;;;9.63;3.83;;;;;;;1.94;100.00;100048.25;4983068;28;20220;-73
2024/01/02 04:38:28;;;;;;;4.83;2.70;;;;;;;1.96;100.00;100046.13;4983888;28;20587;-72
2024/01/02 04:40:57;;;;;;;6.73;2.47;;;;;;;1.99;100.00;100050.00;4983227;28;20312;-72
2024/01/02 04:43:24;;;;;;;12.33;2.40;;;;;;;2.02;100.00;100049.44;4983300;28;20286;-72
2024/01/02 04:45:56;;;;;;;13.90;2.23;;;;;;;2.02;100.00;100042.38;4958258;23;20607;-72
2024/01/02 04:48:23;;;;;;;4.77;1.80;;;;;;;2.05;100.00;100041.84;4905978;28;20805;-73
2024/01/02 04:50:51;;;;;;;10.63;2.27;;;;;;;2.07;100.00;100046.75;4908449;28;20594;-71
2024/01/02 04:53:17;;;;;;;8.00;2.30;;;;;;;2.09;100.00;100040.22;4906252;28;20214;-71
2024/01/02 04:55:44;;;;;;;5.00;1.70;;;;;;;2.10;100.00;100038.38;4905330;28;20232;-71
2024/01/02 04:58:12;;;;;;;8.00;2.00;;;;;;;2.11;100.00;100035.50;4912716;28;20225;-71
2024/01/02 05:00:39;;;;;;;7.40;1.90;;;;;;;2.13;100.00;100027.41;4909953;28;21589;-70
2024/01/02 05:03:05;;;;;;;6.97;2.13;;;;;;;2.15;100.00;100030.47;4949422;22;20239;-70
2024/01/02 05:05:32;;;;;;;10.80;1.93;;;;;;;2.15;100.00;100020.06;4953973;28;20850;-67
2024/01/02 05:07:58;;;;;;;5.93;2.20;;;;;;;2.16;100.00;100016.41;4963039;28;20211;-70
2024/01/02 05:10:25;;;;;;;7.13;1.87;;;;;;;2.15;100.00;100012.25;4963486;28;20222;-67
2024/01/02 05:12:51;;;;;;;9.70;1.80;;;;;;;2.18;100.00;100014.31;4954438;28;20263;-71
2024/01/02 05:15:19;;;;;;;6.73;2.37;;;;;;;2.19;100.00;100015.84;4958833;28;20227;-69
2024/01/02 05:17:45;;;;;;;7.13;1.80;;;;;;;2.20;100.00;100007.75;4958343;28;20573;-69
2024/01/02 05:20:12;;;;;;;8.53;1.60;;;;;;;2.21;100.00;99998.88;4964333;28;20215;-70
2024/01/02 05:22:39;;;;;;;8.47;1.90;;;;;;;2.22;100.00;99997.81;4962756;28;20227;-69
2024/01/02 05:25:06;;;;;;;13.07;2.00;;;;;;;2.24;100.00;99992.34;4964376;28;20211;-70
2024/01/02 05:27:33;;;;;;;4.20;1.73;;;;;;;2.26;100.00;99990.19;4965220;28;20208;-69
2024/01/02 05:29:59;;;;;;;7.70;2.40;;;;;;;2.27;100.00;99989.94;4966660;28;21016;-70
2024/01/02 05:32:27;;;;;;;5.97;1.80;;;;;;;2.29;100.00;99976.63;4963970;28;20227;-69
2024/01/02 05:34:53;;;;;;;7.87;2.00;;;;;;;2.30;100.00;99976.34;4958094;28;20211;-70
2024/01/02 05:37:19;;;;;;;3.30;2.03;;;;;;;2.32;100.00;99976.81;4958382;28;20899;-68
2024/01/02 05:39:46;;;;;;;6.63;1.80;;;;;;;2.33;100.00;99972.41;4961871;28;20223;-69
2024/01/02 05:42:12;;;;;;;7.47;1.67;;;;;;;2.36;100.00;99966.59;4964505;28;20817;-70
2024/01/02 05:44:38;;;;;;;8.07;1.87;;;;;;;2.37;100.00;99971.53;4963507;28;20207;-69
2024/01/02 05:47:05;;;;;;;5.37;1.43;;;;;;;2.40;100.00;99970.97;4957802;28;20196;-69
2024/01/02 05:49:32;;;;;;;7.30;1.77;;;;;;;2.42;100.00;99968.06;4959165;28;20208;-69
2024/01/02 05:51:59;;;;;;;7.57;1.70;;;;;;;2.45;100.00;99962.28;4964151;28;20580;-69
2024/01/02 05:54:25;;;;;;;4.57;1.53;;;;;;;2.48;100.00;99965.09;4965161;28;20255;-69
2024/01/02 05:56:51;;;;;;;7.50;1.77;;;;;;;2.50;100.00;99957.00;4960318;28;20229;-69
2024/01/02 05:59:18;;;;;;;6.63;1.80;;;;;;;2.53;100.00;99953.78;4959956;28;20216;-69
2024/01/02 06:01:44;;;;;;;3.33;1.80;;;;;;;2.56;100.00;99940.19;4952164;28;20670;-69
2024/01/02 06:04:10;;;;;;;6.77;1.90;;;;;;;2.59;100.00;99943.00;4958755;28;20236;-70
2024/01/02 06:06:38;;;;;;;7.63;1.60;;;;;;;2.61;100.00;99940.09;4960111;28;20211;-70
2024/01/02 06:09:05;;;;;;;5.77;1.70;;;;;;;2.62;100.00;99932.00;4950299;28;21383;-70
2024/01/02 06:11:31;;;;;;;6.83;1.43;;;;;;;2.66;100.00;99932.19;4962612;28;20231;-69
2024/01/02 06:13:57;;;;;;;7.77;1.50;;;;;;;2.66;100.00;99921.78;4964968;28;20235;-69
2024/01/02 06:16:24;;;;;;;5.00;1.17;;;;;;;2.68;100.00;99915.22;4963823;28;20819;-70
2024/01/02 06:18:50;;;;;;;6.47;2.07;;;;;;;2.69;100.00;99911.53;4965987;28;20212;-70
2024/01/02 06:21:16;;;;;;;4.17;1.73;;;;;;;2.71;100.00;99912.00;4964797;28;20212;-69
2024/01/02 06:23:44;;;;;;;7.33;1.50;;;;;;;2.73;100.00;99907.28;4962304;28;21172;-71
2024/01/02 06:26:10;;;;;;;5.53;1.83;;;;;;;2.75;100.00;99910.38;4966320;28;20238;-70
2024/01/02 06:28:37;;;;;;;5.37;1.50;;;;;;;2.77;100.00;99904.88;4965147;28;20303;-70
2024/01/02 06:31:05;;;;;;;6.20;1.50;;;;;;;2.80;100.00;99902.47;4965011;28;20323;-69
2024/01/02 06:33:31;;;;;;;5.37;1.40;;;;;;;2.82;100.00;99895.13;4960619;28;20606;-70
2024/01/02 06:35:57;;;;;;;6.17;1.40;;;;;;;2.84;100.00;99889.63;4963496;28;20737;-70
2024/01/02 06:38:24;;;;;;;7.50;1.53;;;;;;;2.86;100.00;99884.91;4967979;28;20211;-69
2024/01/02 06:40:51;;;;;;;5.57;1.27;;;;;;;2.87;100.00;99879.41;4965250;28;20517;-71
2024/01/02 06:43:18;;;;;;;2.27;1.37;;;;;;;2.89;100.00;99892.91;4967490;28;20248;-69
2024/01/02 06:45:44;;;;;;;4.80;1.30;;;;;;;2.90;100.00;99888.47;4969006;28;20827;-70
2024/01/02 06:48:10;;;;;;;5.80;1.33;;;;;;;2.92;100.00;99886.34;4965059;28;20872;-70
2024/01/02 06:50:37;;;;;;;5.13;1.40;;;;;;;2.92;100.00;99874.09;4967225;28;20251;-70
2024/01/02 06:53:03;;;;;;;6.47;1.67;;;;;;;2.93;100.00;99883.44;4959210;28;20242;-70
2024/01/02 06:55:30;;;;;;;5.93;1.47;;;;;;;2.95;100.00;99877.94;4966428;28;20208;-69
2024/01/02 06:57:57;;;;;;;7.00;1.70;;;;;;;2.96;100.00;99880.22;4965059;28;20212;-70
2024/01/02 07:00:24;;;;;;;5.87;2.07;;;;;;;2.98;100.00;99879.94;4964734;28;20212;-69
2024/01/02 07:02:50;;;;;;;7.30;1.83;;;;;;;2.98;100.00;99877.34;4954674;28;21618;-70
2024/01/02 07:05:17;;;;;;;5.53;1.93;;;;;;;3.00;100.00;99875.97;4960626;28;20208;-69
2024/01/02 07:07:43;;;;;;;7.60;1.90;;;;;;;3.02;100.00;99886.88;4959079;28;20382;-69
2024/01/02 07:10:09;;;;;;;7.53;1.90;;;;;;;3.05;100.00;99888.91;4956332;28;20216;-69
2024/01/02 07:12:36;;;;;;;8.43;2.07;;;;;;;3.09;100.00;99881.28;4957387;28;20274;-71
2024/01/02 07:15:05;;;;;;;5.37;1.90;;;;;;;3.11;100.00;99877.31;4954927;28;20389;-69
2024/01/02 07:17:31;;;;;;;4.40;1.63;;;;;;;3.15;100.00;99870.44;4957885;28;20228;-70
2024/01/02 07:19:59;;;;;;;10.40;1.80;;;;;;;3.19;100.00;99871.41;4959859;28;20559;-71
2024/01/02 07:22:26;;;;;;;3.83;1.57;;;;;;;3.23;100.00;99872.38;4964526;28;20224;-69
2024/01/02 07:24:52;;;;;;;3.23;1.67;;;;;;;3.28;100.00;99868.88;4958562;28;20211;-69
2024/01/02 07:27:19;;;;;;;4.00;1.30;;;;;;;3.32;100.00;99854.94;4962845;28;20965;-71
2024/01/02 07:29:45;;;;;;;3.47;1.30;;;;;;;3.36;100.00;99852.50;4959775;28;20576;-69
2024/01/02 07:32:13;;;;;;;3.53;1.50;;;;;;;3.39;100.00;99844.88;4967930;28;20216;-69
2024/01/02 07:34:39;;;;;;;4.10;1.77;;;;;;;3.45;100.00;99848.13;4966769;28;20207;-70
2024/01/02 07:37:06;;;;;;;4.97;1.70;;;;;;;3.47;100.00;99831.13;4969352;28;20232;-69
2024/01/02 07:39:32;;;;;;;4.67;1.97;;;;;;;3.53;100.00;99834.38;4970721;28;20223;-69
2024/01/02 07:41:58;;;;;;;4.20;1.70;;;;;;;3.56;100.00;99828.56;4969309;28;20309;-69
2024/01/02 07:44:28;;;;;;;4.70;1.67;;;;;;;3.59;100.00;99828.75;4969241;28;20341;-68
2024/01/02 07:46:54;;;;;;;7.27;1.90;;;;;;;3.63;100.00;99824.47;4963773;28;20205;-70
2024/01/02 07:49:22;;;;;;;5.57;1.70;;;;;;;3.69;100.00;99825.13;4969890;28;20305;-69
2024/01/02 07:51:48;;;;;;;6.20;1.93;;;;;;;3.73;100.00;99820.84;4968580;28;20813;-70
2024/01/02 07:54:15;;;;;;;5.20;1.63;;;;;;;3.75;100.00;99814.28;4968521;28;20242;-70
2024/01/02 07:56:41;;;;;;;4.83;2.43;;;;;;;3.78;100.00;99811.03;4968030;28;20235;-68
2024/01/02 07:59:07;;;;;;;6.70;2.10;;;;;;;3.83;100.00;99807.56;4967990;28;20211;-69
2024/01/02 08:01:34;;;;;;;7.43;2.03;;;;;;;3.87;100.00;99803.25;4969156;28;21997;-69
2024/01/02 08:04:00;;;;;;;9.43;2.17;;;;;;;3.91;100.00;99793.75;4958993;28;20286;-70
2024/01/02 08:06:28;;;;;;;6.83;2.07;;;;;;;3.94;100.00;99788.69;4962516;28;20207;-69
2024/01/02 08:08:54;;;;;;;3.93;1.70;;;;;;;3.98;100.00;99773.19;4960439;28;20309;-69
2024/01/02 08:11:20;;;;;;;5.20;1.70;;;;;;;4.00;100.00;99779.66;4962975;28;20249;-70
2024/01/02 08:13:47;;;;;;;6.57;2.00;;;;;;;4.05;100.00;99776.16;4964126;28;20252;-68
2024/01/02 08:16:13;;;;;;;5.97;2.03;;;;;;;4.10;100.00;99776.03;4970824;28;20363;-69
2024/01/02 08:18:41;;;;;;;5.30;2.13;;;;;;;4.13;100.00;99775.41;4968787;28;20639;-70
2024/01/02 08:21:08;;;;;;;6.73;2.20;;;;;;;4.16;100.00;99772.19;4959413;28;20787;-70
2024/01/02 08:23:36;;;;;;;6.43;1.90;;;;;;;4.20;100.00;99763.44;4959354;28;20664;-69
2024/01/02 08:26:02;;;;;;;6.50;2.00;;;;;;;4.25;100.00;99765.16;4958369;28;21431;-70
2024/01/02 08:28:29;;;;;;;4.77;1.70;;;;;;;4.28;100.00;99754.88;4961308;28;20796;-70
2024/01/02 08:30:55;;;;;;;5.10;2.30;;;;;;;4.30;100.00;99750.09;4959312;28;20222;-70
2024/01/02 08:33:21;;;;;;;4.43;1.90;;;;;;;4.36;100.00;99750.75;4959743;28;20253;-70
2024/01/02 08:35:48;;;;;;;7.37;2.17;;;;;;;4.39;100.00;99744.91;4958729;28;20223;-69
2024/01/02 08:38:14;;;;;;;4.73;2.17;;;;;;;4.42;100.00;99747.69;4958365;28;20448;-69
2024/01/02 08:40:42;;;;;;;4.13;1.90;;;;;;;4.45;100.00;99734.00;4961477;28;20246;-68
2024/01/02 08:43:08;;;;;;;4.03;2.10;;;;;;;4.49;100.00;99728.94;4962589;28;22000;-69
2024/01/02 08:45:34;;;;;;;2.00;1.63;;;;;;;4.51;100.00;99730.16;4957995;28;20219;-70
2024/01/02 08:48:01;;;;;;;6.57;3.73;;;;;;;4.54;100.00;99719.09;4956283;28;20210;-68
2024/01/02 08:50:29;;;;;;;6.33;2.70;;;;;;;4.57;100.00;99728.19;4963220;28;20212;-69
2024/01/02 08:52:55;;;;;;;3.73;2.20;;;;;;;4.59;100.00;99718.19;4960318;28;20228;-68
2024/01/02 08:55:22;;;;;;;7.63;2.30;;;;;;;4.62;100.00;99717.56;4967677;28;20220;-69
2024/01/02 08:57:49;;;;;;;6.83;2.00;;;;;;;4.65;100.00;99719.56;4965615;28;21052;-68
2024/01/02 09:00:16;;;;;;;3.60;1.80;;;;;;;4.67;100.00;99712.19;4963573;28;20895;-69
2024/01/02 09:02:42;;;;;;;4.23;1.73;;;;;;;4.70;100.00;99711.56;4963765;28;20243;-70
2024/01/02 09:05:09;;;;;;;5.27;1.87;;;;;;;4.71;100.00;99719.13;4956548;28;20211;-69
2024/01/02 09:07:36;;;;;;;5.33;1.70;;;;;;;4.74;100.00;99702.03;4970260;28;20818;-69
2024/01/02 09:10:02;;;;;;;5.03;1.70;;;;;;;4.77;100.00;99710.03;4965100;28;20226;-70
2024/01/02 09:12:30;;;;;;;5.40;2.17;;;;;;;4.79;100.00;99710.50;4968663;28;20333;-69
2024/01/02 09:14:57;;;;;;;5.43;1.93;;;;;;;4.81;100.00;99712.81;4965709;28;20858;-70
2024/01/02 09:17:24;;;;;;;11.30;3.03;;;;;;;4.83;100.00;99710.66;4963388;28;20231;-69
2024/01/02 09:19:50;;;;;;;4.97;2.40;;;;;;;4.85;100.00;99703.25;4967253;28;20211;-69
2024/01/02 09:22:16;;;;;;;3.40;2.00;;;;;;;4.87;100.00;99695.91;4964624;28;20674;-68
2024/01/02 09:24:44;;;;;;;5.47;1.90;;;;;;;4.87;100.00;99696.66;4966000;28;21427;-68
2024/01/02 09:27:13;;;;;;;3.73;2.20;;;;;;;4.89;100.00;99688.50;4964150;28;20557;-68
2024/01/02 09:29:40;;;;;;;4.63;2.00;;;;;;;4.90;100.00;99690.81;4964799;28;20816;-68
2024/01/02 09:32:07;;;;;;;6.40;1.70;;;;;;;4.91;100.00;99684.50;4964792;28;20545;-69
2024/01/02 09:34:35;;;;;;;4.40;2.17;;;;;;;4.93;100.00;99692.03;4970074;28;21034;-68
2024/01/02 09:37:02;;;;;;;4.37;1.80;;;;;;;4.93;100.00;99676.34;4965914;28;20231;-69
2024/01/02 09:39:29;;;;;;;6.90;2.10;;;;;;;4.94;100.00;99680.50;4968186;28;20629;-68
2024/01/02 09:42:12;;;;;;;6.23;1.87;;;;;;;4.97;100.00;99679.88;4968071;28;20208;-69
2024/01/02 09:44:55;;;;;;;4.43;2.10;;;;;;;4.99;100.00;99672.50;4967417;28;20219;-68
2024/01/02 09:47:40;;;;;;;6.20;2.07;;;;;;;5.02;100.00;99656.19;4965146;28;20672;-69
2024/01/02 09:50:12;;;;;;;6.40;1.90;;;;;;;5.03;100.00;99652.47;4968317;28;20225;-69
2024/01/02 09:52:53;;;;;;;4.23;1.97;;;;;;;5.05;100.00;99647.69;4970151;28;20752;-68
2024/01/02 09:55:28;;;;;;;6.17;2.07;;;;;;;5.06;100.00;99651.84;4967455;28;20222;-67
2024/01/02 09:58:12;;;;;;;5.33;1.97;;;;;;;5.09;100.00;99638.16;4967988;28;20227;-68
2024/01/02 10:00:47;;;;;;;3.33;1.60;;;;;;;5.09;100.00;99636.31;4965087;28;20218;-68
2024/01/02 10:03:57;;;;;;;4.70;2.53;;;;;;;5.12;100.00;99625.22;4965626;28;20231;-68
2024/01/02 10:06:37;;;;;;;5.50;2.30;;;;;;;5.15;100.00;99618.59;4959836;28;20228;-69
2024/01/02 10:09:35;;;;;;;7.17;2.77;;;;;;;5.16;100.00;99601.78;4967213;28;20207;-68
2024/01/02 10:12:16;;;;;;;7.13;2.30;;;;;;;5.18;100.00;99594.41;4967942;28;20210;-68
2024/01/02 10:14:53;;;;;;;4.90;2.27;;;;;;;5.20;100.00;99581.78;4966858;28;20214;-68
2024/01/02 10:17:33;;;;;;;4.87;2.20;;;;;;;5.22;100.00;99564.69;4962287;28;20230;-69
2024/01/02 10:20:09;;;;;;;6.63;2.80;;;;;;;5.26;100.00;99555.13;4957911;28;20219;-68
2024/01/02 10:22:52;;;;;;;6.23;3.13;;;;;;;5.29;100.00;99546.63;4957663;28;20237;-68
2024/01/02 10:25:21;;;;;;;8.07;3.60;;;;;;;5.31;100.00;99552.34;4956568;28;21254;-69
2024/01/02 10:27:59;;;;;;;5.90;2.93;;;;;;;5.35;100.00;99552.47;4958006;28;20203;-68
2024/01/02 10:30:36;;;;;;;5.97;2.60;;;;;;;5.36;100.00;99546.94;4957283;28;20909;-68
2024/01/02 10:33:12;;;;;;;5.97;3.07;;;;;;;5.39;100.00;99530.56;4956753;28;20241;-68
2024/01/02 10:35:45;;;;;;;6.30;2.90;;;;;;;5.43;100.00;99522.84;4959735;28;20234;-70
2024/01/02 10:38:17;;;;;;;4.27;1.97;;;;;;;5.45;100.00;99520.69;4959991;28;20223;-68
2024/01/02 10:40:50;;;;;;;5.33;2.67;;;;;;;5.46;100.00;99517.00;4959351;28;20207;-68
2024/01/02 10:43:26;;;;;;;6.93;3.13;;;;;;;5.51;100.00;99522.03;4957677;28;20238;-68
2024/01/02 10:45:58;;;;;;;5.37;2.60;;;;;;;5.52;100.00;99526.97;4956981;28;20216;-70
2024/01/02 10:48:42;;;;;;;4.57;2.27;;;;;;;5.54;100.00;99519.56;4945611;28;20661;-70
2024/01/02 10:51:17;;;;;;;5.47;2.70;;;;;;;5.55;100.00;99508.00;4950529;28;20243;-69
2024/01/02 10:53:50;;;;;;;3.80;2.50;;;;;;;5.57;100.00;99510.28;4961840;28;21682;-69
2024/01/02 10:56:29;;;;;;;2.63;1.50;;;;;;;5.56;100.00;99499.06;4964333;28;20211;-70
2024/01/02 10:59:04;;;;;;;1.47;1.37;;;;;;;5.57;100.00;99486.72;4968986;28;20227;-69
2024/01/02 11:01:33;;;;;;;3.47;1.53;;;;;;;5.56;100.00;99472.91;4956186;28;20333;-69
2024/01/02 11:04:12;;;;;;;2.23;1.50;;;;;;;5.56;100.00;99462.41;4994987;22;20317;-73
2024/01/02 11:06:45;;;;;;;1.77;1.43;;;;;;;5.55;100.00;99473.19;4986344;28;20229;-73
2024/01/02 11:09:18;;;;;;;2.70;1.23;;;;;;;5.56;100.00;99459.03;4987249;28;20329;-74
2024/01/02 11:11:50;;;;;;;4.50;1.90;;;;;;;5.57;100.00;99456.09;4989439;28;20211;-73
2024/01/02 11:14:19;;;;;;;2.87;1.73;;;;;;;5.56;100.00;99454.56;4976873;28;22005;-74
2024/01/02 11:16:48;;;;;;;4.57;2.40;;;;;;;5.57;100.00;99440.38;4987448;28;20216;-73
2024/01/02 11:19:18;;;;;;;4.13;2.50;;;;;;;5.60;100.00;99446.84;4983447;28;20227;-74
2024/01/02 11:21:52;;;;;;;4.37;2.10;;;;;;;5.63;100.00;99438.31;4982882;28;20821;-73
2024/01/02 11:24:21;;;;;;;2.93;1.23;;;;;;;5.63;100.00;99436.47;4985909;28;21091;-73
2024/01/02 11:26:50;;;;;;;2.73;1.30;;;;;;;5.65;100.00;99433.56;4986515;28;20212;-73
2024/01/02 11:29:21;;;;;;;2.80;1.50;;;;;;;5.67;100.00;99418.28;4987942;28;20890;-73
2024/01/02 11:31:50;;;;;;;2.20;1.33;;;;;;;5.70;100.00;99401.94;4989704;28;20213;-73
2024/01/02 11:34:34;;;;;;;2.03;1.53;;;;;;;5.71;100.00;99396.38;4984823;28;20296;-73